Data for 06/28/2007

Time Sea-Level Adjusted Pressure Absolute Pressure Temperature Relative Humidity Dew Point   
(mb) (inHg) (mb) (inHg) (C) (F) (%) (C) (F)
00:05 1020 30.12 849 25.07 19 66.3 49 8.2 46.8
00:10 1020 30.12 849 25.07 19 66.3 49 8.3 47
00:15 1020 30.12 849 25.07 19.1 66.3 50 8.4 47.1
00:20 1020 30.12 849 25.07 19 66.2 50 8.4 47.2
00:25 1020 30.12 849 25.07 18.9 66.1 50 8.5 47.3
00:30 1020 30.12 849 25.07 18.9 66.1 50 8.5 47.3
00:35 1020 30.12 849 25.07 18.9 66 51 8.6 47.5
00:40 1020 30.12 849 25.07 18.8 65.8 52 8.7 47.6
00:45 1020 30.12 849 25.07 18.8 65.8 52 8.7 47.7
00:50 1019 30.09 849 25.07 18.8 65.8 52 8.7 47.7
00:55 1020 30.12 849 25.07 18.7 65.6 52 8.8 47.8
01:00 1019 30.09 849 25.07 18.8 65.8 52 8.8 47.8
01:05 1019 30.09 849 25.07 18.7 65.6 52 8.9 48
01:10 1019 30.09 849 25.07 18.6 65.5 53 8.9 48
01:15 1019 30.09 849 25.07 18.5 65.4 53 9 48.1
01:20 1019 30.09 849 25.07 18.4 65.2 54 9 48.2
01:25 1019 30.09 849 25.07 18.4 65.1 54 9 48.3
01:30 1020 30.12 849 25.07 18.3 65 55 9.1 48.4
01:35 1019 30.09 849 25.07 18.5 65.2 54 9.1 48.3
01:40 1019 30.09 848 25.04 18.4 65.2 55 9.2 48.6
01:45 1019 30.09 849 25.07 18.4 65 55 9.3 48.7
01:50 1019 30.09 848 25.04 18.4 65 55 9.3 48.8
01:55 1019 30.09 849 25.07 18.4 65.2 56 9.5 49.1
02:00 1019 30.09 849 25.07 18.3 65 56 9.6 49.3
02:05 1019 30.09 849 25.07 18.2 64.7 57 9.6 49.4
02:10 1019 30.09 849 25.07 18.2 64.7 57 9.7 49.5
02:15 1019 30.09 849 25.07 18.1 64.6 58 9.8 49.7
02:20 1019 30.09 849 25.07 18 64.3 59 9.9 49.8
02:25 1019 30.09 848 25.04 17.9 64.1 59 9.9 49.8
02:30 1019 30.09 848 25.04 17.7 63.9 60 9.9 49.8
02:35 1019 30.09 849 25.07 17.7 63.8 60 9.9 49.9
02:40 1019 30.09 848 25.04 17.7 63.8 60 10 50
02:45 1019 30.09 848 25.04 17.4 63.4 61 10 50
02:50 1019 30.09 848 25.04 17.3 63.1 61 9.9 49.8
02:55 1019 30.09 848 25.04 17.3 63.1 62 10 50
03:00 1019 30.09 848 25.04 17.3 63.2 61 9.9 49.8
03:05 1019 30.09 848 25.04 17.3 63.1 62 9.9 49.9
03:10 1019 30.09 848 25.04 17.3 63.2 62 10 50
03:15 1019 30.09 848 25.04 17.2 62.9 62 9.9 49.8
03:20 1019 30.09 848 25.04 17.1 62.8 62 9.9 49.9
03:25 1019 30.09 848 25.04 17.2 62.9 62 9.8 49.7
03:30 1019 30.09 848 25.04 17.2 63 61 9.8 49.6
03:35 1019 30.09 848 25.04 17.2 63 61 9.8 49.6
03:40 1019 30.09 848 25.04 17.2 63 61 9.8 49.6
03:45 1019 30.09 848 25.04 17.1 62.9 62 9.9 49.8
03:50 1019 30.09 848 25.04 17 62.6 63 9.9 49.8
03:55 1019 30.09 848 25.04 16.9 62.3 63 9.9 49.8
04:00 1019 30.09 848 25.04 16.7 62.1 63 9.8 49.6
04:05 1019 30.09 848 25.04 16.7 62 63 9.8 49.6
04:10 1019 30.09 848 25.04 16.5 61.8 64 9.7 49.5
04:15 1019 30.09 848 25.04 16.5 61.6 64 9.7 49.4
04:20 1019 30.09 848 25.04 16.5 61.6 63 9.6 49.2
04:25 1019 30.09 848 25.04 16.4 61.5 64 9.6 49.3
04:30 1019 30.09 848 25.04 16.3 61.4 64 9.6 49.3
04:35 1019 30.09 848 25.04 16.3 61.3 64 9.5 49.1
04:40 1019 30.09 848 25.04 16.3 61.3 64 9.5 49.2
04:45 1019 30.09 848 25.04 16.2 61.1 65 9.5 49.2
04:50 1019 30.09 849 25.07 16 60.8 65 9.6 49.2
04:55 1019 30.09 849 25.07 15.9 60.6 65 9.5 49.1
05:00 1019 30.09 849 25.07 15.8 60.5 66 9.5 49
05:05 1019 30.09 848 25.04 15.8 60.4 66 9.4 49
05:10 1019 30.09 848 25.04 15.7 60.3 66 9.4 48.9
05:15 1019 30.09 848 25.04 15.7 60.2 66 9.3 48.7
05:20 1019 30.09 848 25.04 15.7 60.2 65 9.2 48.6
05:25 1019 30.09 848 25.04 15.7 60.2 65 9.2 48.6
05:30 1019 30.09 848 25.04 15.6 60.1 65 9.2 48.6
05:35 1019 30.09 848 25.04 15.6 60 65 9.1 48.3
05:40 1019 30.09 848 25.04 15.5 59.9 65 9 48.1
05:45 1019 30.09 849 25.07 15.5 59.9 64 8.7 47.7
05:50 1019 30.09 849 25.07 15.6 60.1 62 8.4 47.2
05:55 1019 30.09 849 25.07 15.7 60.3 62 8.5 47.3
06:00 1019 30.09 849 25.07 15.8 60.4 61 8.4 47.1
06:05 1020 30.12 849 25.07 15.8 60.4 61 8.3 47
06:10 1020 30.12 849 25.07 15.8 60.4 61 8.5 47.2
06:15 1020 30.12 849 25.07 15.8 60.4 63 8.8 47.8
06:20 1020 30.12 849 25.07 15.6 60.1 63 8.7 47.6
06:25 1020 30.12 849 25.07 15.5 59.9 64 8.7 47.7
06:30 1020 30.12 849 25.07 15.5 59.9 63 8.7 47.6
06:35 1020 30.12 849 25.07 15 59.1 65 8.7 47.6
06:40 1020 30.12 849 25.07 14.8 58.6 66 8.6 47.5
06:45 1020 30.12 849 25.07 15 59 65 8.6 47.4
06:50 1020 30.12 849 25.07 15.3 59.5 63 8.4 47.1
06:55 1020 30.12 849 25.07 15.6 60 62 8.3 47
07:00 1020 30.12 849 25.07 15.9 60.6 60 8.3 46.9
07:05 1020 30.12 849 25.07 16 60.8 60 8.3 46.9
07:10 1020 30.12 849 25.07 15.9 60.7 59 7.9 46.3
07:15 1020 30.12 849 25.07 16.3 61.4 58 8 46.5
07:20 1020 30.12 849 25.07 16.8 62.2 56 8.2 46.7
07:25 1020 30.12 849 25.07 17 62.5 56 8.1 46.6
07:30 1020 30.12 849 25.07 17.1 62.7 56 8.3 46.9
07:35 1020 30.12 849 25.07 17.3 63.1 56 8.5 47.2
07:40 1020 30.12 849 25.07 17.2 63 56 8.4 47.2
07:45 1020 30.12 849 25.07 17.2 63 57 8.7 47.6
07:50 1020 30.12 849 25.07 17.1 62.7 59 9.1 48.5
07:55 1020 30.12 849 25.07 17.2 62.9 57 8.6 47.4
08:00 1020 30.12 849 25.07 17.4 63.4 56 8.7 47.7
08:05 1020 30.12 849 25.07 17.7 63.9 55 8.8 47.9
08:10 1020 30.12 849 25.07 18 64.3 55 8.8 47.9
08:15 1020 30.12 849 25.07 18.5 65.4 52 8.6 47.5
08:20 1020 30.12 849 25.07 18.7 65.7 54 9.4 48.9
08:25 1020 30.12 849 25.07 18.4 65.2 55 9.4 48.9
08:30 1020 30.12 849 25.07 18.8 65.8 52 9 48.1
08:35 1020 30.12 849 25.07 19.5 67.1 52 9.5 49.2
08:40 1020 30.12 849 25.07 19.7 67.4 53 9.9 49.8
08:45 1020 30.12 849 25.07 20 68 50 9.4 48.8
08:50 1020 30.12 849 25.07 20.5 68.9 49 9.5 49.1
08:55 1020 30.12 849 25.07 20.3 68.6 47 8.7 47.7
09:00 1020 30.12 849 25.07 20.3 68.5 48 9.1 48.4
09:05 1020 30.12 849 25.07 20.8 69.4 46 8.8 47.8
09:10 1020 30.12 849 25.07 21.7 71 43 8.7 47.7
09:15 1020 30.12 849 25.07 22.1 71.8 42 8.9 48.1
09:20 1020 30.12 849 25.07 22.4 72.3 43 9.4 48.9
09:25 1020 30.12 849 25.07 22.4 72.4 44 9.8 49.6
09:30 1020 30.12 849 25.07 22.7 72.8 45 10.3 50.5
09:35 1020 30.12 849 25.07 22.4 72.3 46 10.4 50.7
09:40 1020 30.12 849 25.07 22.6 72.7 46 10.5 50.9
09:45 1020 30.12 849 25.07 22.5 72.4 47 10.7 51.3
09:50 1020 30.12 849 25.07 22.2 72 47 10.5 50.9
09:55 1020 30.12 849 25.07 22.6 72.7 46 10.6 51
10:00 1020 30.12 849 25.07 22.4 72.3 47 10.5 51
10:05 1020 30.12 849 25.07 22.8 73 45 10.4 50.7
10:10 1020 30.12 849 25.07 23.4 74.1 44 10.5 50.8
10:15 1020 30.12 849 25.07 23.7 74.6 44 10.8 51.4
10:20 1019 30.09 849 25.07 23.7 74.6 45 11.2 52.2
10:25 1019 30.09 849 25.07 23.8 74.9 45 11.4 52.4
10:30 1019 30.09 849 25.07 23.8 74.8 45 11.2 52.2
10:35 1019 30.09 849 25.07 23.7 74.6 45 11.2 52.2
10:40 1019 30.09 848 25.04 24.1 75.4 43 11 51.8
10:45 1019 30.09 848 25.04 23.2 73.7 48 11.6 52.9
10:50 1019 30.09 848 25.04 22.9 73.3 48 11.5 52.7
10:55 1019 30.09 848 25.04 23.7 74.7 44 11 51.8
11:00 1019 30.09 848 25.04 24.9 76.9 42 11.4 52.5
11:05 1019 30.09 848 25.04 25.4 77.7 42 11.6 52.9
11:10 1019 30.09 848 25.04 25.9 78.5 39 11.2 52.2
11:15 1019 30.09 848 25.04 25.9 78.5 39 11.3 52.3
11:20 1019 30.09 848 25.04 25.4 77.6 40 11 51.8
11:25 1019 30.09 848 25.04 24.7 76.4 43 11.5 52.6
11:30 1019 30.09 848 25.04 25.3 77.5 39 10.7 51.2
11:35 1019 30.09 848 25.04 25.8 78.5 39 11.2 52.2
11:40 1019 30.09 848 25.04 26.7 80 37 11.1 52
11:45 1019 30.09 848 25.04 26.8 80.3 37 11.1 52
11:50 1019 30.09 848 25.04 27.1 80.8 36 10.9 51.5
11:55 1019 30.09 848 25.04 27.3 81.2 37 11.7 53.1
12:00 1018 30.06 848 25.04 26.6 80 39 11.6 52.9
12:05 1018 30.06 848 25.04 26.9 80.3 38 11.5 52.7
12:10 1018 30.06 847 25.01 26.8 80.3 40 12.2 54
12:15 1018 30.06 847 25.01 26.8 80.3 39 12 53.5
12:20 1018 30.06 847 25.01 27.5 81.4 39 12.4 54.3
12:25 1018 30.06 847 25.01 27.6 81.7 37 11.9 53.4
12:30 1018 30.06 847 25.01 27 80.7 37 11.4 52.5
12:35 1018 30.06 847 25.01 28 82.3 35 11.5 52.7
12:40 1018 30.06 847 25.01 28.6 83.4 33 10.9 51.6
12:45 1018 30.06 847 25.01 29 84.1 32 11.1 51.9
12:50 1018 30.06 847 25.01 28.6 83.5 32 10.6 51
12:55 1018 30.06 847 25.01 28.7 83.7 32 10.9 51.7
13:00 1018 30.06 847 25.01 28.8 83.9 32 10.7 51.2
13:05 1018 30.06 847 25.01 28.2 82.8 34 11.1 52
13:10 1018 30.06 847 25.01 28.8 83.8 33 11.1 51.9
13:15 1018 30.06 847 25.01 29.7 85.5 31 11.2 52.1
13:20 1017 30.03 847 25.01 29.7 85.4 33 11.8 53.2
13:25 1017 30.03 847 25.01 29.4 84.9 31 10.9 51.6
13:30 1017 30.03 847 25.01 30.4 86.7 30 11.1 52.1
13:35 1017 30.03 847 25.01 30.6 87.2 29 10.7 51.2
13:40 1017 30.03 847 25.01 29.7 85.4 30 10.4 50.7
13:45 1017 30.03 847 25.01 30.7 87.3 27 10.1 50.3
13:50 1017 30.03 846 24.98 30 86 31 11.2 52.1
13:55 1017 30.03 846 24.98 29.8 85.6 30 10.6 51.2
14:00 1017 30.03 846 24.98 29.9 85.8 30 10.9 51.6
14:05 1017 30.03 846 24.98 30.3 86.5 30 10.9 51.5
14:10 1017 30.03 846 24.98 30.2 86.4 29 10.7 51.3
14:15 1017 30.03 846 24.98 29.4 84.9 31 10.9 51.6
14:20 1017 30.03 846 24.98 29.9 85.8 29 10.5 50.9
14:25 1017 30.03 846 24.98 30.4 86.8 29 10.5 50.9
14:30 1017 30.03 846 24.98 31.3 88.3 27 10.2 50.4
14:35 1017 30.03 846 24.98 31.8 89.2 26 10.3 50.6
14:40 1017 30.03 846 24.98 32.5 90.6 26 10.8 51.5
14:45 1017 30.03 846 24.98 32.4 90.3 27 11.1 52
14:50 1017 30.03 846 24.98 31.6 88.9 26 10.2 50.4
14:55 1017 30.03 846 24.98 32.8 91 23 9.5 49.1
15:00 1017 30.03 846 24.98 33.7 92.6 24 11 51.8
15:05 1016 30 846 24.98 33.8 92.8 24 10.8 51.4
15:10 1016 30 846 24.98 34.3 93.7 24 11.4 52.5
15:15 1016 30 846 24.98 34.1 93.4 25 11.7 53.1
15:20 1016 30 846 24.98 33.9 93 23 10.3 50.5
15:25 1016 30 846 24.98 33.8 92.8 21 8.8 47.8
15:30 1016 30 846 24.98 34.3 93.7 18 6.7 44.1
15:35 1016 30 846 24.98 34.6 94.2 11 0 32
15:40 1016 30 845 24.95 33.6 92.6 14 2.5 36.6
15:45 1016 30 845 24.95 34 93.1 12 1.4 34.4
15:50 1016 30 845 24.95 33.7 92.7 13 2.4 36.3
15:55 1016 30 845 24.95 33.8 92.8 12 1.1 34.1
16:00 1016 30 845 24.95 34.3 93.7 12 1.1 34
16:05 1016 30 845 24.95 35.4 95.8 12 2.1 35.7
16:10 1016 30 845 24.95 34.9 94.9 12 1.5 34.8
16:15 1016 30 845 24.95 34.3 93.7 12 1.6 34.8
16:20 1016 30 845 24.95 34.1 93.4 14 2.8 37
16:25 1016 30 845 24.95 33.2 91.7 14 2.8 37
16:30 1016 30 845 24.95 33.2 91.8 14 2.7 36.9
16:35 1016 30 845 24.95 32.8 91.1 19 6.4 43.4
16:40 1016 30 845 24.95 32.2 90 19 5.8 42.5
16:45 1016 30 845 24.95 31.9 89.5 21 7.1 44.9
16:50 1016 30 845 24.95 32.1 89.7 21 7.5 45.6
16:55 1016 30 845 24.95 31.8 89.2 20 6.7 44.1
17:00 1016 30 845 24.95 31 87.8 20 5.8 42.4
17:05 1016 30 845 24.95 31 87.8 20 6 42.8
17:10 1016 30 845 24.95 31.2 88.1 20 5.7 42.3
17:15 1015 29.97 845 24.95 31 87.8 21 6.4 43.6
17:20 1015 29.97 845 24.95 30.8 87.4 21 6.3 43.4
17:25 1015 29.97 845 24.95 30.8 87.4 21 6.1 43
17:30 1015 29.97 845 24.95 30.9 87.7 21 6.2 43.2
17:35 1015 29.97 845 24.95 31.4 88.4 20 6.3 43.3
17:40 1015 29.97 845 24.95 31.6 88.8 21 6.9 44.4
17:45 1015 29.97 845 24.95 31.4 88.6 23 8.2 46.7
17:50 1015 29.97 845 24.95 31.1 87.9 22 7.3 45.2
17:55 1015 29.97 845 24.95 31.1 87.9 23 7.7 45.8
18:00 1015 29.97 845 24.95 31.3 88.3 21 6.9 44.4
18:05 1015 29.97 845 24.95 31.4 88.6 22 7.2 45
18:10 1015 29.97 845 24.95 31.5 88.7 21 6.8 44.3
18:15 1015 29.97 844 24.92 31.5 88.8 22 7.7 45.8
18:20 1015 29.97 844 24.92 31.7 89 22 7.7 45.8
18:25 1015 29.97 844 24.92 31.7 89.1 21 7.3 45.2
18:30 1015 29.97 844 24.92 31.6 88.8 22 7.6 45.7
18:35 1015 29.97 844 24.92 31.6 88.8 22 7.3 45.2
18:40 1015 29.97 844 24.92 31.6 88.8 22 7.3 45.2
18:45 1015 29.97 844 24.92 31.5 88.7 22 7.6 45.7
18:50 1015 29.97 844 24.92 31.4 88.5 21 7 44.6
18:55 1015 29.97 844 24.92 31.3 88.4 22 7.1 44.9
19:00 1015 29.97 844 24.92 31.1 87.9 21 6.5 43.7
19:05 1015 29.97 844 24.92 31 87.7 21 6.3 43.3
19:10 1015 29.97 844 24.92 31 87.7 21 6.3 43.4
19:15 1015 29.97 844 24.92 30.8 87.4 20 5.6 42.1
19:20 1015 29.97 844 24.92 30.8 87.4 21 6.3 43.4
19:25 1015 29.97 844 24.92 30.6 87.2 21 6.3 43.4
19:30 1015 29.97 844 24.92 30.4 86.8 22 6.7 44
19:35 1015 29.97 844 24.92 30 86.1 22 6.5 43.6
19:40 1015 29.97 844 24.92 29.9 85.7 22 6.5 43.7
19:45 1015 29.97 844 24.92 29.8 85.6 23 6.7 44.1
19:50 1015 29.97 844 24.92 29.7 85.4 23 6.8 44.2
19:55 1015 29.97 844 24.92 29.5 85.1 22 6.1 43.1
20:00 1015 29.97 844 24.92 29.5 85.1 23 6.5 43.7
20:05 1015 29.97 844 24.92 29.2 84.6 23 6.6 43.9
20:10 1015 29.97 844 24.92 29.1 84.3 24 6.6 43.9
20:15 1015 29.97 844 24.92 28.9 83.9 25 7.2 44.9
20:20 1015 29.97 844 24.92 28.7 83.6 25 6.8 44.3
20:25 1015 29.97 844 24.92 28.5 83.4 25 7 44.7
20:30 1015 29.97 844 24.92 28.4 83 26 7 44.7
20:35 1015 29.97 845 24.95 28.2 82.7 26 7.1 44.8
20:40 1015 29.97 845 24.95 28.1 82.6 26 6.8 44.3
20:45 1015 29.97 845 24.95 28.1 82.5 26 7.1 44.7
20:50 1015 29.97 845 24.95 27.9 82.1 27 7.3 45.1
20:55 1015 29.97 845 24.95 27.7 81.9 27 7.5 45.5
21:00 1015 29.97 845 24.95 27.6 81.7 27 7.3 45.1
21:05 1016 30 845 24.95 27.6 81.7 27 7.4 45.4
21:10 1016 30 845 24.95 27.6 81.8 28 7.5 45.6
21:15 1016 30 845 24.95 27.5 81.4 29 8.1 46.6
21:20 1016 30 845 24.95 26.6 79.9 31 8.4 47.2
21:25 1016 30 845 24.95 26.4 79.5 31 8.2 46.7
21:30 1016 30 845 24.95 26.2 79.2 32 8.4 47
21:35 1016 30 845 24.95 25.9 78.6 32 8.2 46.8
21:40 1016 30 845 24.95 26 78.7 32 8.1 46.6
21:45 1016 30 845 24.95 26 78.7 32 8.1 46.6
21:50 1016 30 845 24.95 25.8 78.5 32 8.3 46.9
21:55 1016 30 845 24.95 25.6 78 33 8.3 47
22:00 1016 30 845 24.95 25.3 77.6 34 8.4 47.1
22:05 1016 30 845 24.95 25.2 77.4 33 7.9 46.2
22:10 1016 30 845 24.95 25.4 77.8 33 8.2 46.8
22:15 1016 30 845 24.95 25.1 77.1 34 8.3 46.9
22:20 1016 30 845 24.95 25.1 77.3 34 8.4 47.1
22:25 1016 30 845 24.95 25 77.1 34 8.5 47.2
22:30 1016 30 845 24.95 24.9 76.9 35 8.5 47.4
22:35 1016 30 845 24.95 24.8 76.7 35 8.7 47.6
22:40 1016 30 845 24.95 24.6 76.2 37 9 48.2
22:45 1016 30 845 24.95 24.4 76 37 8.8 47.9
22:50 1016 30 845 24.95 24.6 76.3 36 8.7 47.7
22:55 1015 29.97 845 24.95 24.6 76.2 36 8.8 47.8
23:00 1015 29.97 845 24.95 24.3 75.8 37 9 48.2
23:05 1015 29.97 845 24.95 24.1 75.5 38 9 48.2
23:10 1015 29.97 845 24.95 24.1 75.3 38 9 48.2
23:15 1015 29.97 845 24.95 23.9 75 39 9.1 48.4
23:20 1015 29.97 845 24.95 23.8 74.9 39 9.1 48.4
23:25 1015 29.97 845 24.95 23.6 74.6 39 9.1 48.4
23:30 1015 29.97 845 24.95 23.4 74.1 39 9 48.3
23:35 1015 29.97 845 24.95 23.5 74.2 39 9 48.2
23:40 1015 29.97 845 24.95 23.4 74.1 40 9.2 48.6
23:45 1015 29.97 845 24.95 23.2 73.7 42 9.6 49.3
23:50 1015 29.97 845 24.95 22.8 73 42 9.3 48.8
23:55 1015 29.97 845 24.95 22.6 72.6 41 8.8 47.9
24:00 1015 29.97 845 24.95 22.5 72.6 41 8.8 47.9